createdAt,value
2018-05-06T00:01:52.020Z,88.10
2018-05-06T00:06:57.422Z,88.20
2018-05-06T00:12:00.755Z,88.40
2018-05-06T00:17:04.190Z,88.60
2018-05-06T00:22:07.638Z,88.90
2018-05-06T00:27:11.333Z,89.20
2018-05-06T00:32:14.600Z,89.20
2018-05-06T00:37:18.368Z,89.20
2018-05-06T00:42:23.279Z,89.20
2018-05-06T00:53:01.236Z,89.10
2018-05-06T00:58:04.635Z,89.10
2018-05-06T01:03:08.922Z,89.30
2018-05-06T01:08:12.272Z,89.30
2018-05-06T01:13:15.578Z,89.20
2018-05-06T01:18:19.213Z,89.50
2018-05-06T01:23:22.472Z,89.50
2018-05-06T01:28:25.732Z,89.70
2018-05-06T01:33:28.942Z,89.70
2018-05-06T01:38:32.414Z,90.00
2018-05-06T01:43:36.063Z,90.10
2018-05-06T01:48:39.402Z,90.10
2018-05-06T01:53:42.881Z,90.40
2018-05-06T01:58:46.360Z,90.60
2018-05-06T02:03:49.581Z,90.60
2018-05-06T02:08:55.149Z,91.00
2018-05-06T02:13:58.408Z,91.00
2018-05-06T02:19:01.845Z,91.30
2018-05-06T02:24:06.057Z,91.30
2018-05-06T02:29:09.286Z,91.30
2018-05-06T02:34:12.924Z,91.70
2018-05-06T02:39:17.125Z,91.70
2018-05-06T02:44:20.991Z,92.00
2018-05-06T02:49:24.455Z,92.00
2018-05-06T02:54:27.867Z,92.20
2018-05-06T02:59:31.524Z,92.30
2018-05-06T03:04:34.992Z,92.30
2018-05-06T03:09:38.230Z,92.60
2018-05-06T03:14:41.522Z,92.70
2018-05-06T03:19:45.282Z,92.90
2018-05-06T03:24:48.508Z,92.90
2018-05-06T03:29:52.187Z,93.40
2018-05-06T03:34:55.657Z,93.40
2018-05-06T03:39:59.475Z,93.40
2018-05-06T03:50:37.440Z,93.80
2018-05-06T03:55:42.069Z,93.90
2018-05-06T04:00:48.684Z,93.90
2018-05-06T04:05:51.975Z,93.90
2018-05-06T04:10:55.180Z,94.10
2018-05-06T04:15:58.813Z,94.20
2018-05-06T04:21:02.035Z,94.20
2018-05-06T04:26:05.391Z,94.10
2018-05-06T04:31:08.626Z,94.10
2018-05-06T04:36:11.905Z,94.30
2018-05-06T04:41:15.548Z,94.10
2018-05-06T04:46:18.792Z,94.10
2018-05-06T04:51:22.031Z,94.00
2018-05-06T04:56:25.655Z,93.80
2018-05-06T05:01:29.288Z,93.90
2018-05-06T05:06:33.045Z,93.90
2018-05-06T05:11:36.285Z,93.90
2018-05-06T05:16:39.523Z,93.70
2018-05-06T05:21:42.758Z,93.60
2018-05-06T05:26:46.086Z,93.20
2018-05-06T05:31:49.311Z,93.00
2018-05-06T05:36:52.552Z,93.00
2018-05-06T05:41:55.797Z,92.70
2018-05-06T05:46:59.132Z,92.70
2018-05-06T05:52:02.410Z,92.00
2018-05-06T05:57:05.647Z,92.10
2018-05-06T06:02:09.363Z,91.50
2018-05-06T06:07:13.035Z,90.70
2018-05-06T06:12:16.295Z,90.70
2018-05-06T06:17:19.950Z,90.50
2018-05-06T06:22:23.191Z,90.50
2018-05-06T06:27:26.415Z,89.30
2018-05-06T06:32:30.178Z,88.60
2018-05-06T06:37:33.516Z,88.70
2018-05-06T06:42:37.274Z,88.70
2018-05-06T06:47:40.936Z,88.20
2018-05-06T06:52:44.393Z,88.20
2018-05-06T06:57:48.076Z,87.10
2018-05-06T07:02:51.441Z,87.10
2018-05-06T07:07:54.861Z,86.70
2018-05-06T07:12:58.127Z,87.00
2018-05-06T07:18:01.782Z,87.10
2018-05-06T07:23:05.007Z,87.10
2018-05-06T07:28:08.272Z,87.10
2018-05-06T07:33:11.923Z,85.90
2018-05-06T07:38:15.906Z,85.90
2018-05-06T07:43:19.535Z,86.30
2018-05-06T07:48:22.776Z,86.30
2018-05-06T07:53:26.143Z,86.10
2018-05-06T07:58:29.433Z,85.80
2018-05-06T08:03:33.175Z,84.30
2018-05-06T08:08:36.420Z,84.30
2018-05-06T08:13:39.649Z,83.70
2018-05-06T08:18:42.899Z,83.80
2018-05-06T08:23:46.149Z,83.70
2018-05-06T08:28:49.817Z,82.40
2018-05-06T08:33:53.073Z,82.40
2018-05-06T08:38:56.344Z,82.20
2018-05-06T08:43:59.603Z,81.90
2018-05-06T08:49:03.251Z,81.20
2018-05-06T08:54:06.488Z,81.20
2018-05-06T08:59:09.707Z,79.50
2018-05-06T09:04:13.170Z,80.20
2018-05-06T09:09:16.399Z,80.50
2018-05-06T09:14:19.632Z,79.70
2018-05-06T09:19:22.869Z,79.30
2018-05-06T09:24:26.487Z,77.60
2018-05-06T09:29:30.113Z,76.80
2018-05-06T09:34:33.503Z,76.80
2018-05-06T09:39:36.812Z,75.40
2018-05-06T09:44:40.530Z,73.90
2018-05-06T09:49:44.164Z,74.40
2018-05-06T09:54:47.861Z,74.00
2018-05-06T09:59:51.490Z,73.80
2018-05-06T10:04:55.129Z,73.30
2018-05-06T10:09:58.356Z,73.30
2018-05-06T10:15:01.704Z,74.10
2018-05-06T10:20:05.326Z,71.20
2018-05-06T10:25:08.966Z,71.40
2018-05-06T10:30:12.344Z,71.40
2018-05-06T10:35:15.580Z,71.40
2018-05-06T10:40:18.806Z,71.60
2018-05-06T10:45:22.051Z,73.60
2018-05-06T10:50:25.316Z,72.90
2018-05-06T10:55:28.599Z,72.90
2018-05-06T11:00:32.206Z,73.20
2018-05-06T11:05:35.825Z,72.90
2018-05-06T11:10:39.459Z,71.80
2018-05-06T11:15:42.727Z,71.80
2018-05-06T11:20:46.651Z,71.60
2018-05-06T11:25:50.279Z,72.20
2018-05-06T11:30:54.013Z,70.20
2018-05-06T11:35:57.250Z,70.20
2018-05-06T11:41:00.608Z,70.60
2018-05-06T11:46:03.849Z,69.10
2018-05-06T11:51:07.071Z,65.80
2018-05-06T11:56:10.321Z,63.60
2018-05-06T12:01:14.033Z,60.80
2018-05-06T12:06:17.674Z,60.50
2018-05-06T12:11:21.055Z,60.50
2018-05-06T12:16:24.315Z,58.10
2018-05-06T12:21:27.581Z,57.50
2018-05-06T12:26:31.414Z,55.70
2018-05-06T12:31:34.807Z,55.70
2018-05-06T12:36:38.439Z,57.20
2018-05-06T12:41:41.737Z,57.20
2018-05-06T12:46:45.395Z,55.10
2018-05-06T12:51:48.627Z,55.10
2018-05-06T12:56:51.864Z,54.10
2018-05-06T13:01:55.668Z,54.60
2018-05-06T13:06:59.112Z,54.60
2018-05-06T13:12:02.373Z,54.70
2018-05-06T13:17:05.667Z,55.20
2018-05-06T13:22:09.001Z,52.30
2018-05-06T13:27:12.662Z,51.30
2018-05-06T13:32:15.956Z,51.30
2018-05-06T13:37:19.191Z,52.40
2018-05-06T13:42:22.424Z,52.50
2018-05-06T13:47:25.655Z,53.60
2018-05-06T13:52:29.272Z,56.60
2018-05-06T13:57:32.932Z,57.10
2018-05-06T14:02:36.174Z,57.10
2018-05-06T14:07:39.485Z,56.60
2018-05-06T14:12:42.797Z,55.20
2018-05-06T14:17:46.449Z,54.80
2018-05-06T14:22:49.721Z,54.80
2018-05-06T14:27:53.378Z,51.70
2018-05-06T14:32:56.630Z,51.70
2018-05-06T14:38:00.324Z,50.70
2018-05-06T14:43:03.543Z,50.70
2018-05-06T14:48:15.711Z,49.70
2018-05-06T14:53:18.951Z,50.10
2018-05-06T14:58:22.181Z,50.10
2018-05-06T15:03:25.463Z,50.00
2018-05-06T15:08:28.703Z,50.30
2018-05-06T15:13:32.313Z,49.20
2018-05-06T15:18:35.591Z,49.20
2018-05-06T15:23:39.685Z,49.30
2018-05-06T15:28:42.944Z,48.80
2018-05-06T15:33:46.600Z,48.80
2018-05-06T15:38:50.490Z,48.80
2018-05-06T15:43:54.135Z,49.10
2018-05-06T15:48:57.344Z,49.10
2018-05-06T15:54:00.601Z,49.50
2018-05-06T15:59:03.850Z,49.20
2018-05-06T16:04:13.392Z,48.60
2018-05-06T16:09:16.610Z,48.30
2018-05-06T16:14:19.960Z,48.70
2018-05-06T16:19:23.271Z,49.10
2018-05-06T16:24:26.639Z,49.00
2018-05-06T16:29:29.860Z,49.30
2018-05-06T16:34:33.125Z,49.40
2018-05-06T16:39:36.390Z,49.20
2018-05-06T16:44:39.628Z,49.20
2018-05-06T16:49:42.900Z,49.40
2018-05-06T16:54:46.137Z,50.10
2018-05-06T16:59:49.380Z,51.00
2018-05-06T17:04:52.619Z,53.70
2018-05-06T17:09:56.274Z,51.70
2018-05-06T17:14:59.482Z,51.70
2018-05-06T17:20:12.303Z,50.50
2018-05-06T17:25:15.531Z,50.20
2018-05-06T17:30:18.747Z,51.10
2018-05-06T17:35:22.093Z,53.50
2018-05-06T17:40:26.366Z,58.20
2018-05-06T17:45:29.670Z,58.20
2018-05-06T17:50:32.885Z,58.80
2018-05-06T17:55:36.333Z,58.70
2018-05-06T18:00:39.583Z,59.00
2018-05-06T18:05:42.861Z,59.50
2018-05-06T18:10:46.485Z,60.00
2018-05-06T18:15:49.712Z,60.00
2018-05-06T18:20:53.884Z,60.10
2018-05-06T18:31:29.076Z,60.90
2018-05-06T18:36:33.174Z,61.90
2018-05-06T18:41:36.406Z,61.90
2018-05-06T18:46:40.043Z,62.90
2018-05-06T18:51:43.400Z,62.90
2018-05-06T18:56:46.619Z,63.30
2018-05-06T19:01:49.845Z,63.80
2018-05-06T19:06:53.622Z,64.20
2018-05-06T19:11:57.103Z,64.30
2018-05-06T19:17:00.584Z,64.40
2018-05-06T19:22:04.410Z,65.00
2018-05-06T19:27:09.951Z,65.00
2018-05-06T19:32:13.525Z,65.10
2018-05-06T19:37:17.007Z,64.80
2018-05-06T19:42:20.299Z,64.70
2018-05-06T19:47:23.611Z,64.80
2018-05-06T19:52:27.256Z,65.00
2018-05-06T19:57:30.671Z,65.00
2018-05-06T20:02:34.133Z,65.00
2018-05-06T20:07:37.761Z,64.70
2018-05-06T20:12:41.398Z,64.10
2018-05-06T20:17:44.670Z,64.10
2018-05-06T20:22:48.182Z,63.70
2018-05-06T20:27:51.871Z,62.80
2018-05-06T20:32:55.214Z,62.80
2018-05-06T20:37:59.026Z,62.90
2018-05-06T20:43:05.464Z,62.30
2018-05-06T20:48:10.409Z,62.40
2018-05-06T20:53:13.605Z,62.00
2018-05-06T20:58:16.825Z,62.10
2018-05-06T21:03:20.110Z,61.60
2018-05-06T21:08:23.401Z,61.40
2018-05-06T21:13:26.588Z,61.10
2018-05-06T21:18:29.916Z,61.40
2018-05-06T21:23:33.116Z,61.30
2018-05-06T21:28:36.336Z,61.50
2018-05-06T21:33:39.913Z,61.70
2018-05-06T21:38:43.090Z,61.70
2018-05-06T21:43:46.290Z,61.80
2018-05-06T21:48:49.484Z,62.10
2018-05-06T21:53:52.729Z,62.10
2018-05-06T21:58:55.942Z,62.30
2018-05-06T22:03:59.596Z,62.90
2018-05-06T22:09:02.825Z,62.90
2018-05-06T22:14:06.068Z,63.00
2018-05-06T22:19:09.646Z,63.10
2018-05-06T22:24:14.650Z,63.10
2018-05-06T22:29:17.875Z,63.10
2018-05-06T22:34:21.083Z,63.00
2018-05-06T22:39:24.252Z,63.40
2018-05-06T22:44:27.433Z,63.30
2018-05-06T22:49:30.607Z,63.60
2018-05-06T22:54:33.794Z,63.40
2018-05-06T22:59:37.097Z,63.50
2018-05-06T23:04:40.631Z,63.70
2018-05-06T23:09:44.327Z,63.70
2018-05-06T23:14:47.572Z,63.90
2018-05-06T23:19:50.779Z,64.20
2018-05-06T23:24:54.216Z,64.20
2018-05-06T23:29:57.922Z,64.50
2018-05-06T23:35:01.447Z,64.80
2018-05-06T23:40:06.154Z,64.80
2018-05-06T23:45:09.490Z,64.80
2018-05-06T23:50:12.690Z,65.00
2018-05-06T23:55:18.659Z,65.20
